Fascination — C6FM9 — position and weather

sailwx.info

Track history (hours):
 
Tides and Currents Weather Stations Pressure Air Temp Water Temp Dewpoint Dewpoint Depression Visibility Wind Speed Wind Dir Waves Ship Positions

Fascination

Operator: Carnival Cruise Lines

Last reported at 2016-Aug-23 15:10 UTC. Time now 2016-Aug-25 23:43 UTC.
Position N 15°41' W 062°36'.

Type: Ship. MMSI: 309682000.

Date/timePositionNaut miles runAvg speedWind from/ knotsBaromVisibWave heightAir tempDewpointWater temp
2016-Aug-23 15:10N 15°41' W 062°36'712.0
2016-Aug-23 14:33N 15°47' W 062°41'18111.8
2016-Aug-22 23:13N 18°05' W 064°44'811.7
2016-Aug-22 22:32N 18°08' W 064°51'1010.1
2016-Aug-22 21:33N 18°17' W 064°56'2 0.2
2016-Aug-22 10:10N 18°16' W 064°57'68 8.8
2016-Aug-22 02:31N 18°28' W 066°07'1 0.1
2016-Aug-21 19:24N 18°28' W 066°07'0 0.0
2016-Aug-21 18:30N 18°28' W 066°07'0 0.0
2016-Aug-21 17:33N 18°28' W 066°07'0 0.0
2016-Aug-21 16:29N 18°28' W 066°07'66 5.5
2016-Aug-21 04:24N 18°11' W 064°59'1416.0
2016-Aug-21 03:32N 18°07' W 064°45'7715.4
2016-Aug-20 22:32N 18°01' W 063°24'1515.3
2016-Aug-20 21:32N 18°01' W 063°08'5 0.5
2016-Aug-20 11:24N 18°01' W 063°03'0 0.3
2016-Aug-20 10:33N 18°00' W 063°03'6 6.3
2016-Aug-20 09:33N 18°01' W 063°10'9 9.0
2016-Aug-20 08:32N 18°03' W 063°19'8 8.5
2016-Aug-20 07:33N 18°06' W 063°27'8 8.3
2016-Aug-20 06:33N 18°07' W 063°36'6 6.1
2016-Aug-20 05:33N 18°02' W 063°39'8 7.6
2016-Aug-20 04:32N 17°59' W 063°31'9 8.8
2016-Aug-20 03:32N 17°57' W 063°23'10 9.9
2016-Aug-20 02:32N 17°50' W 063°15'10 9.7
2016-Aug-20 01:33N 17°44' W 063°08'72 4.2
2016-Aug-19 08:33N 16°41' W 062°30'  
2016-Aug-15 23:33N 18°07' W 064°49'10 9.9
2016-Aug-15 22:33N 18°14' W 064°55'3 0.2
2016-Aug-15 10:09N 18°17' W 064°56'69 9.1
2016-Aug-15 02:33N 18°29' W 066°08'1 1.3
2016-Aug-15 01:33N 18°28' W 066°07'0 0.0
2016-Aug-15 00:33N 18°28' W 066°07'0 0.0
2016-Aug-14 23:32N 18°28' W 066°07'0 0.0
2016-Aug-14 22:32N 18°28' W 066°07'0 0.0
2016-Aug-14 21:25N 18°28' W 066°07'0 0.0
2016-Aug-14 20:22N 18°28' W 066°07'0 0.0
2016-Aug-14 19:28N 18°28' W 066°07'0 0.0
2016-Aug-14 18:33N 18°28' W 066°07'0 0.0
2016-Aug-14 17:30N 18°28' W 066°07'0 0.0
2016-Aug-14 16:29N 18°28' W 066°07'0 0.0
2016-Aug-14 15:32N 18°28' W 066°07'0 0.0
2016-Aug-14 13:31N 18°28' W 066°07'0 0.0
2016-Aug-14 11:33N 18°28' W 066°07'0 0.1
2016-Aug-14 10:34N 18°28' W 066°07'7 6.6
2016-Aug-14 09:32N 18°34' W 066°04'6412.9
2016-Aug-14 04:33N 18°11' W 065°00'7915.8
2016-Aug-13 23:33N 18°02' W 063°38'1615.6
2016-Aug-13 22:31N 18°01' W 063°21'1515.2
2016-Aug-13 21:33N 18°00' W 063°06'  
Track history (hours):
 
Tides and Currents Weather Stations Pressure Air Temp Water Temp Dewpoint Dewpoint Depression Visibility Wind Speed Wind Dir Waves Ship Positions

Fascination

Operator: Carnival Cruise Lines

Last reported at 2016-Aug-23 15:10 UTC. Time now 2016-Aug-25 23:43 UTC.
Position N 15°41' W 062°36'.

Type: Ship. MMSI: 309682000.

Date/timePositionNaut miles runAvg speedWind from/ knotsBaromVisibWave heightAir tempDewpointWater temp
2016-Aug-23 15:10N 15°41' W 062°36'712.0
2016-Aug-23 14:33N 15°47' W 062°41'18111.8
2016-Aug-22 23:13N 18°05' W 064°44'811.7
2016-Aug-22 22:32N 18°08' W 064°51'1010.1
2016-Aug-22 21:33N 18°17' W 064°56'2 0.2
2016-Aug-22 10:10N 18°16' W 064°57'68 8.8
2016-Aug-22 02:31N 18°28' W 066°07'1 0.1
2016-Aug-21 19:24N 18°28' W 066°07'0 0.0
2016-Aug-21 18:30N 18°28' W 066°07'0 0.0
2016-Aug-21 17:33N 18°28' W 066°07'0 0.0
2016-Aug-21 16:29N 18°28' W 066°07'66 5.5
2016-Aug-21 04:24N 18°11' W 064°59'1416.0
2016-Aug-21 03:32N 18°07' W 064°45'7715.4
2016-Aug-20 22:32N 18°01' W 063°24'1515.3
2016-Aug-20 21:32N 18°01' W 063°08'5 0.5
2016-Aug-20 11:24N 18°01' W 063°03'0 0.3
2016-Aug-20 10:33N 18°00' W 063°03'6 6.3
2016-Aug-20 09:33N 18°01' W 063°10'9 9.0
2016-Aug-20 08:32N 18°03' W 063°19'8 8.5
2016-Aug-20 07:33N 18°06' W 063°27'8 8.3
2016-Aug-20 06:33N 18°07' W 063°36'6 6.1
2016-Aug-20 05:33N 18°02' W 063°39'8 7.6
2016-Aug-20 04:32N 17°59' W 063°31'9 8.8
2016-Aug-20 03:32N 17°57' W 063°23'10 9.9
2016-Aug-20 02:32N 17°50' W 063°15'10 9.7
2016-Aug-20 01:33N 17°44' W 063°08'72 4.2
2016-Aug-19 08:33N 16°41' W 062°30'  
2016-Aug-15 23:33N 18°07' W 064°49'10 9.9
2016-Aug-15 22:33N 18°14' W 064°55'3 0.2
2016-Aug-15 10:09N 18°17' W 064°56'69 9.1
2016-Aug-15 02:33N 18°29' W 066°08'1 1.3
2016-Aug-15 01:33N 18°28' W 066°07'0 0.0
2016-Aug-15 00:33N 18°28' W 066°07'0 0.0
2016-Aug-14 23:32N 18°28' W 066°07'0 0.0
2016-Aug-14 22:32N 18°28' W 066°07'0 0.0
2016-Aug-14 21:25N 18°28' W 066°07'0 0.0
2016-Aug-14 20:22N 18°28' W 066°07'0 0.0
2016-Aug-14 19:28N 18°28' W 066°07'0 0.0
2016-Aug-14 18:33N 18°28' W 066°07'0 0.0
2016-Aug-14 17:30N 18°28' W 066°07'0 0.0
2016-Aug-14 16:29N 18°28' W 066°07'0 0.0
2016-Aug-14 15:32N 18°28' W 066°07'0 0.0
2016-Aug-14 13:31N 18°28' W 066°07'0 0.0
2016-Aug-14 11:33N 18°28' W 066°07'0 0.1
2016-Aug-14 10:34N 18°28' W 066°07'7 6.6
2016-Aug-14 09:32N 18°34' W 066°04'6412.9
2016-Aug-14 04:33N 18°11' W 065°00'7915.8
2016-Aug-13 23:33N 18°02' W 063°38'1615.6
2016-Aug-13 22:31N 18°01' W 063°21'1515.2
2016-Aug-13 21:33N 18°00' W 063°06'  

Dump ship's entire track history